createdAt,value
2023-03-05T00:06:23.884Z,92720.00
2023-03-05T00:07:23.815Z,92720.00
2023-03-05T00:08:23.755Z,92722.00
2023-03-05T00:09:23.680Z,92722.00
2023-03-05T00:10:23.622Z,92722.00
2023-03-05T00:11:23.554Z,92722.00
2023-03-05T00:12:23.501Z,92720.00
2023-03-05T00:13:23.426Z,92720.00
2023-03-05T00:14:23.376Z,92722.00
2023-03-05T00:15:23.302Z,92722.00
2023-03-05T00:16:23.340Z,92722.00
2023-03-05T00:17:23.190Z,92726.00
2023-03-05T00:18:23.126Z,92728.00
2023-03-05T00:19:23.059Z,92726.00
2023-03-05T00:20:22.996Z,92728.00
2023-03-05T00:21:22.937Z,92728.00
2023-03-05T00:22:22.882Z,92730.00
2023-03-05T00:23:22.834Z,92728.00
2023-03-05T00:24:22.764Z,92728.00
2023-03-05T00:25:22.712Z,92726.00
2023-03-05T00:26:22.657Z,92726.00
2023-03-05T00:27:22.609Z,92728.00
2023-03-05T00:28:22.539Z,92728.00
2023-03-05T00:29:22.451Z,92728.00
2023-03-05T00:30:22.398Z,92730.00
2023-03-05T00:31:22.375Z,92728.00
2023-03-05T00:32:22.303Z,92726.00
2023-03-05T00:33:22.186Z,92726.00
2023-03-05T00:34:22.144Z,92726.00
2023-03-05T00:35:22.106Z,92726.00
2023-03-05T00:36:22.022Z,92724.00
2023-03-05T00:37:21.962Z,92724.00
2023-03-05T00:38:21.903Z,92722.00
2023-03-05T00:39:21.857Z,92722.00
2023-03-05T00:40:21.874Z,92720.00
2023-03-05T00:41:21.721Z,92720.00
2023-03-05T00:42:21.656Z,92720.00
2023-03-05T00:43:21.620Z,92718.00
2023-03-05T00:44:21.531Z,92716.00
2023-03-05T00:45:21.487Z,92716.00
2023-03-05T00:46:21.431Z,92718.00
2023-03-05T00:47:21.349Z,92714.00
2023-03-05T00:48:21.297Z,92714.00
2023-03-05T00:49:21.254Z,92716.00
2023-03-05T00:50:21.184Z,92718.00
2023-03-05T00:51:21.107Z,92716.00
2023-03-05T00:52:21.048Z,92716.00
2023-03-05T00:53:20.978Z,92718.00
2023-03-05T00:54:20.922Z,92716.00
2023-03-05T00:55:20.864Z,92716.00
2023-03-05T00:56:20.810Z,92716.00
2023-03-05T00:57:20.756Z,92716.00
2023-03-05T00:58:20.707Z,92714.00
2023-03-05T00:59:20.637Z,92716.00
2023-03-05T01:00:20.574Z,92716.00
2023-03-05T01:01:20.555Z,92716.00
2023-03-05T01:02:20.434Z,92716.00
2023-03-05T01:03:20.385Z,92714.00
2023-03-05T01:04:20.326Z,92714.00
2023-03-05T01:05:20.287Z,92716.00
2023-03-05T01:06:20.203Z,92712.00
2023-03-05T01:07:20.138Z,92714.00
2023-03-05T01:08:20.082Z,92712.00
2023-03-05T01:09:20.036Z,92710.00
2023-03-05T01:10:19.972Z,92708.00
2023-03-05T01:11:19.902Z,92706.00
2023-03-05T01:12:19.841Z,92706.00
2023-03-05T01:13:19.792Z,92704.00
2023-03-05T01:14:19.745Z,92704.00
2023-03-05T01:15:19.671Z,92704.00
2023-03-05T01:16:19.640Z,92706.00
2023-03-05T01:17:19.585Z,92702.00
2023-03-05T01:18:19.498Z,92700.00
2023-03-05T01:19:19.463Z,92702.00
2023-03-05T01:20:19.387Z,92700.00
2023-03-05T01:21:19.351Z,92700.00
2023-03-05T01:22:19.290Z,92700.00
2023-03-05T01:23:19.221Z,92698.00
2023-03-05T01:24:19.187Z,92698.00
2023-03-05T01:25:19.091Z,92700.00
2023-03-05T01:26:19.055Z,92696.00
2023-03-05T01:27:18.989Z,92698.00
2023-03-05T01:28:18.934Z,92696.00
2023-03-05T01:29:18.873Z,92696.00
2023-03-05T01:30:18.818Z,92694.00
2023-03-05T01:31:18.845Z,92698.00
2023-03-05T01:32:18.793Z,92696.00
2023-03-05T01:33:18.693Z,92694.00
2023-03-05T01:34:18.627Z,92692.00
2023-03-05T01:35:18.643Z,92696.00
2023-03-05T01:36:18.534Z,92694.00
2023-03-05T01:37:18.498Z,92696.00
2023-03-05T01:38:18.448Z,92694.00
2023-03-05T01:39:18.398Z,92694.00
2023-03-05T01:40:18.359Z,92694.00
2023-03-05T01:41:18.298Z,92694.00
2023-03-05T01:42:18.216Z,92692.00
2023-03-05T01:43:18.182Z,92690.00
2023-03-05T01:44:18.136Z,92690.00
2023-03-05T01:45:18.107Z,92690.00
2023-03-05T01:46:18.016Z,92688.00
2023-03-05T01:47:17.947Z,92688.00
2023-03-05T01:48:17.892Z,92688.00
2023-03-05T01:49:17.833Z,92688.00
2023-03-05T01:50:17.758Z,92690.00
2023-03-05T01:51:17.698Z,92692.00
2023-03-05T01:52:17.734Z,92692.00
2023-03-05T01:53:17.568Z,92694.00
2023-03-05T02:06:17.737Z,92685.00
2023-03-05T04:04:10.018Z,92622.00
2023-03-05T04:05:09.935Z,92622.00
2023-03-05T04:06:09.864Z,92622.00
2023-03-05T04:07:09.807Z,92620.00
2023-03-05T04:08:09.779Z,92618.00
2023-03-05T04:09:09.715Z,92620.00
2023-03-05T04:10:09.649Z,92616.00
2023-03-05T04:11:09.608Z,92618.00
2023-03-05T04:12:09.592Z,92620.00
2023-03-05T04:13:09.505Z,92616.00
2023-03-05T04:14:09.455Z,92620.00
2023-03-05T04:15:09.395Z,92620.00
2023-03-05T04:16:09.405Z,92620.00
2023-03-05T04:17:09.277Z,92618.00
2023-03-05T04:18:09.216Z,92616.00
2023-03-05T04:19:09.151Z,92618.00
2023-03-05T04:20:09.154Z,92618.00
2023-03-05T04:21:09.034Z,92618.00
2023-03-05T04:22:08.988Z,92620.00
2023-03-05T04:23:08.948Z,92618.00
2023-03-05T04:24:09.045Z,92616.00
2023-03-05T04:25:08.814Z,92616.00
2023-03-05T04:26:08.754Z,92616.00
2023-03-05T04:27:08.710Z,92618.00
2023-03-05T04:28:08.646Z,92616.00
2023-03-05T04:29:08.582Z,92616.00
2023-03-05T04:30:08.510Z,92614.00
2023-03-05T04:31:08.533Z,92614.00
2023-03-05T04:32:08.436Z,92616.00
2023-03-05T04:33:08.320Z,92616.00
2023-03-05T04:34:08.260Z,92614.00
2023-03-05T04:35:08.184Z,92614.00
2023-03-05T04:36:08.120Z,92612.00
2023-03-05T04:37:08.089Z,92612.00
2023-03-05T04:38:08.030Z,92614.00
2023-03-05T04:39:07.974Z,92614.00
2023-03-05T04:40:07.909Z,92612.00
2023-03-05T04:41:07.846Z,92610.00
2023-03-05T04:42:07.808Z,92610.00
2023-03-05T04:43:07.767Z,92612.00
2023-03-05T04:44:07.729Z,92610.00
2023-03-05T04:45:07.825Z,92610.00
2023-03-05T05:24:05.383Z,92585.00
2023-03-05T05:25:05.286Z,92583.00
2023-03-05T05:26:05.220Z,92581.00
2023-03-05T05:27:05.156Z,92581.00
2023-03-05T05:28:05.092Z,92579.00
2023-03-05T05:29:05.033Z,92579.00
2023-03-05T05:30:04.982Z,92579.00
2023-03-05T05:31:05.012Z,92579.00
2023-03-05T05:32:04.871Z,92579.00
2023-03-05T06:30:01.272Z,92585.00
2023-03-05T06:31:01.255Z,92583.00
2023-03-05T06:32:01.184Z,92587.00
2023-03-05T06:33:01.103Z,92585.00
2023-03-05T06:34:01.055Z,92585.00
2023-03-05T06:35:00.964Z,92583.00
2023-03-05T06:36:00.991Z,92583.00
2023-03-05T06:37:00.848Z,92585.00
2023-03-05T06:38:00.799Z,92585.00
2023-03-05T06:39:00.745Z,92581.00
2023-03-05T06:40:00.704Z,92583.00
2023-03-05T06:41:00.622Z,92583.00
2023-03-05T06:42:00.557Z,92583.00
2023-03-05T06:43:00.503Z,92585.00
2023-03-05T06:44:00.448Z,92583.00
2023-03-05T06:45:00.377Z,92581.00
2023-03-05T06:46:00.378Z,92583.00
2023-03-05T06:47:00.277Z,92581.00
2023-03-05T06:48:00.220Z,92583.00
2023-03-05T06:49:00.157Z,92583.00
2023-03-05T06:51:00.068Z,92585.00
2023-03-05T06:52:00.001Z,92585.00
2023-03-05T06:52:59.928Z,92587.00
2023-03-05T06:53:59.868Z,92585.00
2023-03-05T06:54:59.808Z,92587.00
2023-03-05T06:55:59.742Z,92587.00
2023-03-05T06:56:59.702Z,92585.00
2023-03-05T06:57:59.642Z,92585.00
2023-03-05T06:58:59.551Z,92587.00
2023-03-05T06:59:59.493Z,92589.00
2023-03-05T07:00:59.538Z,92591.00
2023-03-05T07:01:59.371Z,92591.00
2023-03-05T07:02:59.295Z,92589.00
2023-03-05T07:03:59.262Z,92591.00
2023-03-05T07:05:59.118Z,92587.00
2023-03-05T07:23:58.286Z,92577.00
2023-03-05T07:24:58.249Z,92575.00
2023-03-05T07:25:58.206Z,92571.00
2023-03-05T07:26:58.154Z,92569.00
2023-03-05T07:27:58.082Z,92567.00
2023-03-05T07:28:58.035Z,92565.00
2023-03-05T07:29:57.983Z,92565.00
2023-03-05T07:30:57.966Z,92561.00
2023-03-05T07:31:57.905Z,92561.00
2023-03-05T07:32:57.805Z,92559.00
2023-03-05T07:33:57.737Z,92559.00
2023-03-05T09:45:50.229Z,92358.00
2023-03-05T09:47:50.032Z,92354.00
2023-03-05T09:49:49.852Z,92352.00
2023-03-05T09:50:49.755Z,92348.00
2023-03-05T09:51:49.680Z,92352.00
2023-03-05T09:52:49.609Z,92346.00
2023-03-05T09:53:49.551Z,92338.00
2023-03-05T09:54:49.513Z,92336.00
2023-03-05T09:55:49.462Z,92336.00
2023-03-05T09:56:49.431Z,92332.00
2023-03-05T09:57:49.396Z,92331.00
2023-03-05T10:10:48.705Z,92303.00
2023-03-05T10:11:48.571Z,92301.00
2023-03-05T10:12:48.488Z,92299.00
2023-03-05T10:13:48.382Z,92303.00
2023-03-05T10:14:48.307Z,92297.00
2023-03-05T10:15:48.228Z,92295.00
2023-03-05T10:16:48.244Z,92293.00
2023-03-05T10:17:48.067Z,92289.00
2023-03-05T10:18:47.975Z,92289.00
2023-03-05T10:19:47.893Z,92285.00
2023-03-05T10:20:47.809Z,92284.00
2023-03-05T11:57:40.394Z,92043.00
2023-03-05T11:58:40.347Z,92039.00
2023-03-05T11:59:40.310Z,92039.00
2023-03-05T12:00:40.272Z,92033.00
2023-03-05T12:01:40.244Z,92035.00
2023-03-05T12:02:40.269Z,92033.00
2023-03-05T12:03:40.184Z,92027.00
2023-03-05T12:04:40.119Z,92029.00
2023-03-05T12:05:40.095Z,92025.00
2023-03-05T12:06:40.034Z,92025.00
2023-03-05T12:07:40.026Z,92021.00
2023-03-05T12:08:40.526Z,92019.00
2023-03-05T12:09:39.927Z,92017.00
2023-03-05T12:10:39.885Z,92017.00
2023-03-05T12:11:39.856Z,92013.00
2023-03-05T12:12:39.830Z,92011.00
2023-03-05T12:13:41.922Z,92009.00
2023-03-05T12:14:39.665Z,92009.00
2023-03-05T12:15:39.554Z,92005.00
2023-03-05T12:16:39.463Z,92002.00
2023-03-05T12:17:39.827Z,92000.00
2023-03-05T12:18:39.235Z,91998.00
2023-03-05T12:19:39.127Z,92002.00
2023-03-05T12:20:39.705Z,91992.00
2023-03-05T12:21:38.917Z,91994.00
2023-03-05T12:22:39.568Z,91990.00
2023-03-05T12:23:38.688Z,91988.00
2023-03-05T12:24:38.579Z,91984.00
2023-03-05T12:25:38.470Z,91984.00
2023-03-05T12:26:38.363Z,91982.00
2023-03-05T12:27:38.249Z,91982.00
2023-03-05T12:28:38.149Z,91980.00
2023-03-05T12:29:38.025Z,91978.00
2023-03-05T12:30:37.916Z,91976.00
2023-03-05T12:31:38.142Z,91972.00
2023-03-05T13:29:31.448Z,91884.00
2023-03-05T13:30:33.603Z,91888.00
2023-03-05T13:31:31.251Z,91886.00
2023-03-05T13:32:31.207Z,91878.00
2023-03-05T13:33:31.017Z,91872.00
2023-03-05T13:34:41.076Z,91870.00
2023-03-05T13:53:28.815Z,91849.00
2023-03-05T13:54:28.695Z,91845.00
2023-03-05T13:55:28.597Z,91847.00
2023-03-05T13:56:28.481Z,91849.00
2023-03-05T13:57:28.364Z,91849.00
2023-03-05T13:58:28.255Z,91851.00
2023-03-05T13:59:28.154Z,91855.00
2023-03-05T14:00:28.075Z,91855.00
2023-03-05T14:01:28.050Z,91855.00
2023-03-05T14:02:27.881Z,91858.00
2023-03-05T14:03:27.984Z,91855.00
2023-03-05T14:04:27.715Z,91855.00
2023-03-05T15:25:21.602Z,91788.00
2023-03-05T15:26:21.539Z,91788.00
2023-03-05T15:27:21.479Z,91782.00
2023-03-05T15:28:21.425Z,91784.00
2023-03-05T15:29:21.362Z,91786.00
2023-03-05T15:30:21.309Z,91782.00
2023-03-05T15:31:21.283Z,91773.00
2023-03-05T15:32:21.217Z,91777.00
2023-03-05T15:33:21.146Z,91784.00
2023-03-05T15:34:21.276Z,91775.00
2023-03-05T15:35:21.082Z,91777.00
2023-03-05T15:36:20.981Z,91777.00
2023-03-05T15:37:20.948Z,91780.00
2023-03-05T15:38:20.876Z,91780.00
2023-03-05T15:39:20.822Z,91782.00
2023-03-05T15:40:20.772Z,91775.00
2023-03-05T15:41:20.710Z,91771.00
2023-03-05T15:42:20.655Z,91773.00
2023-03-05T15:43:20.614Z,91775.00
2023-03-05T15:44:20.558Z,91773.00
2023-03-05T15:45:20.522Z,91775.00
2023-03-05T15:46:20.525Z,91773.00
2023-03-05T15:47:20.397Z,91767.00
2023-03-05T15:48:20.338Z,91775.00
2023-03-05T15:49:20.297Z,91767.00
2023-03-05T15:50:20.247Z,91771.00
2023-03-05T15:51:20.197Z,91767.00
2023-03-05T15:52:20.131Z,91767.00
2023-03-05T15:53:20.082Z,91771.00
2023-03-05T15:54:20.036Z,91769.00
2023-03-05T15:55:19.988Z,91763.00
2023-03-05T15:56:19.932Z,91765.00
2023-03-05T15:57:19.887Z,91765.00
2023-03-05T15:58:19.839Z,91765.00
2023-03-05T15:59:19.800Z,91773.00
2023-03-05T16:00:20.246Z,91775.00
2023-03-05T16:01:19.752Z,91773.00
2023-03-05T16:02:19.658Z,91771.00
2023-03-05T16:03:19.828Z,91769.00
2023-03-05T16:04:19.558Z,91767.00
2023-03-05T16:05:19.513Z,91765.00
2023-03-05T16:07:20.354Z,91777.00
2023-03-05T16:08:19.305Z,91775.00
2023-03-05T16:09:19.195Z,91773.00
2023-03-05T16:10:19.085Z,91769.00
2023-03-05T16:11:18.988Z,91771.00
2023-03-05T16:12:18.881Z,91769.00
2023-03-05T16:13:21.569Z,91775.00
2023-03-05T16:14:18.699Z,91769.00
2023-03-05T16:15:18.587Z,91769.00
2023-03-05T16:16:18.513Z,91767.00
2023-03-05T16:17:18.370Z,91769.00
2023-03-05T16:18:18.269Z,91775.00
2023-03-05T16:19:18.149Z,91773.00
2023-03-05T16:20:18.081Z,91773.00
2023-03-05T16:21:17.952Z,91771.00
2023-03-05T16:22:17.867Z,91771.00
2023-03-05T16:23:17.752Z,91771.00
2023-03-05T17:28:12.417Z,91853.00
2023-03-05T17:29:12.331Z,91856.00
2023-03-05T17:30:12.337Z,91855.00
2023-03-05T17:31:12.257Z,91858.00
2023-03-05T17:33:12.088Z,91858.00
2023-03-05T17:34:11.985Z,91860.00
2023-03-05T17:35:11.887Z,91858.00
2023-03-05T17:36:11.832Z,91858.00
2023-03-05T17:38:11.708Z,91862.00
2023-03-05T17:39:11.615Z,91866.00
2023-03-05T17:40:11.544Z,91864.00
2023-03-05T17:41:11.474Z,91866.00
2023-03-05T18:29:08.435Z,91923.00
2023-03-05T18:30:08.361Z,91925.00
2023-03-05T18:31:08.301Z,91925.00
2023-03-05T18:32:08.229Z,91927.00
2023-03-05T18:33:08.158Z,91929.00
2023-03-05T18:34:08.090Z,91929.00
2023-03-05T18:35:08.018Z,91931.00
2023-03-05T18:36:07.957Z,91929.00
2023-03-05T18:37:07.893Z,91931.00
2023-03-05T18:38:07.816Z,91931.00
2023-03-05T18:39:07.759Z,91939.00
2023-03-05T19:36:04.155Z,91966.00
2023-03-05T19:37:04.070Z,91966.00
2023-03-05T19:38:03.992Z,91966.00
2023-03-05T19:39:03.929Z,91966.00
2023-03-05T19:40:03.860Z,91968.00
2023-03-05T19:41:03.805Z,91966.00
2023-03-05T19:42:03.745Z,91968.00
2023-03-05T19:43:03.666Z,91966.00
2023-03-05T19:44:03.600Z,91966.00
2023-03-05T19:45:03.555Z,91964.00
2023-03-05T19:46:03.513Z,91966.00
2023-03-05T19:47:03.402Z,91966.00
2023-03-05T19:48:03.322Z,91964.00
2023-03-05T19:49:03.265Z,91966.00
2023-03-05T19:50:03.194Z,91962.00
2023-03-05T19:51:03.119Z,91964.00
2023-03-05T19:52:03.060Z,91964.00
2023-03-05T19:53:02.999Z,91962.00
2023-03-05T19:54:02.936Z,91960.00
2023-03-05T19:55:02.873Z,91960.00
2023-03-05T19:56:02.790Z,91964.00
2023-03-05T19:57:02.721Z,91964.00
2023-03-05T19:58:02.685Z,91964.00
2023-03-05T19:59:02.655Z,91964.00
2023-03-05T20:00:02.611Z,91964.00
2023-03-05T20:01:02.538Z,91966.00
2023-03-05T20:02:02.538Z,91968.00
2023-03-05T20:03:02.426Z,91968.00
2023-03-05T20:04:02.388Z,91968.00
2023-03-05T20:05:02.370Z,91964.00
2023-03-05T20:06:02.326Z,91964.00
2023-03-05T20:07:02.289Z,91966.00
2023-03-05T20:08:02.236Z,91970.00
2023-03-05T20:09:02.213Z,91968.00
2023-03-05T20:10:02.216Z,91966.00
2023-03-05T20:11:02.091Z,91968.00
2023-03-05T20:12:02.071Z,91966.00
2023-03-05T20:13:02.006Z,91968.00
2023-03-05T20:14:01.942Z,91972.00
2023-03-05T20:15:01.897Z,91970.00
2023-03-05T21:00:59.162Z,91952.00
2023-03-05T21:01:59.104Z,91954.00
2023-03-05T21:02:59.028Z,91956.00
2023-03-05T21:04:58.883Z,91952.00
2023-03-05T21:05:58.840Z,91950.00
2023-03-05T21:06:58.811Z,91952.00
2023-03-05T21:17:58.100Z,91945.00
2023-03-05T21:18:58.038Z,91945.00
2023-03-05T21:19:57.977Z,91947.00
2023-03-05T21:20:57.913Z,91943.00
2023-03-05T21:21:57.865Z,91943.00
2023-03-05T21:22:57.816Z,91941.00
2023-03-05T21:23:57.744Z,91939.00
2023-03-05T22:38:53.130Z,91904.00
2023-03-05T22:39:53.081Z,91908.00
2023-03-05T22:40:53.021Z,91902.00
2023-03-05T22:41:52.947Z,91900.00
2023-03-05T22:42:52.911Z,91902.00
